Time;durP1;ratioP1;P1;durP2;ratioP2;P2;SDS_P1;SDS_P2;PMS_P1;PMS_P2;Temp;Humidity;BMP_temperature;BMP_pressure;BME280_temperature;BME280_humidity;BME280_pressure;Samples;Min_cycle;Max_cycle;Signal;HPM_P1;HPM_P2
2022/04/04 00:01:44;;;;;;;;;;;7.30;80.40;;;;;;5110714;28;19959;-88
2022/04/04 00:04:10;;;;;;;;;;;7.30;79.90;;;;;;5110609;28;19931;-88
2022/04/04 00:06:35;;;;;;;;;;;7.30;79.70;;;;;;5110614;28;19908;-88
2022/04/04 00:09:01;;;;;;;;;;;7.20;79.80;;;;;;5110680;28;19908;-88
2022/04/04 00:11:27;;;;;;;;;;;7.10;79.90;;;;;;5110512;28;20362;-88
2022/04/04 00:13:52;;;;;;;;;;;7.10;80.00;;;;;;5110418;28;19908;-87
2022/04/04 00:16:18;;;;;;;;;;;7.00;80.30;;;;;;5102522;28;19916;-88
2022/04/04 00:18:43;;;;;;;;;;;7.00;80.30;;;;;;5089966;28;19999;-88
2022/04/04 00:21:09;;;;;;;;;;;7.00;80.40;;;;;;5089919;28;19908;-88
2022/04/04 00:23:34;;;;;;;;;;;7.00;80.40;;;;;;5090145;28;19908;-88
2022/04/04 00:26:00;;;;;;;;;;;7.10;80.30;;;;;;5089788;28;20255;-88
2022/04/04 00:28:25;;;;;;;;;;;7.10;80.10;;;;;;5089777;28;19908;-88
2022/04/04 00:30:51;;;;;;;;;;;7.20;79.90;;;;;;5089630;28;19958;-88
2022/04/04 00:33:16;;;;;;;;;;;7.30;79.60;;;;;;5092334;28;19916;-88
2022/04/04 00:35:42;;;;;;;;;;;7.30;79.40;;;;;;5109671;28;19920;-88
2022/04/04 00:38:08;;;;;;;;;;;7.40;79.10;;;;;;5109912;28;20003;-88
2022/04/04 00:40:34;;;;;;;;;;;7.40;78.80;;;;;;5109560;28;19909;-89
2022/04/04 00:42:59;;;;;;;;;;;7.50;78.50;;;;;;5109821;28;19908;-88
2022/04/04 00:45:25;;;;;;;;;;;7.60;78.20;;;;;;5109816;28;19908;-88
2022/04/04 00:47:51;;;;;;;;;;;7.60;78.00;;;;;;5101426;28;19908;-88
2022/04/04 00:50:16;;;;;;;;;;;7.70;77.50;;;;;;5096142;28;19920;-88
2022/04/04 00:52:42;;;;;;;;;;;7.60;77.30;;;;;;5091894;28;19912;-88
2022/04/04 00:55:08;;;;;;;;;;;7.40;77.80;;;;;;5075654;28;19915;-88
2022/04/04 00:57:34;;;;;;;;;;;7.30;78.10;;;;;;5074456;28;19909;-87
2022/04/04 01:00:00;;;;;;;;;;;7.20;78.50;;;;;;5075566;28;20354;-88
2022/04/04 01:02:25;;;;;;;;;;;7.10;78.80;;;;;;5075700;28;19909;-88
2022/04/04 01:04:51;;;;;;;;;;;7.10;78.90;;;;;;5075620;28;19931;-88
2022/04/04 01:07:16;;;;;;;;;;;7.20;79.00;;;;;;5075832;28;19913;-88
2022/04/04 01:09:42;;;;;;;;;;;7.30;78.80;;;;;;5075461;28;19908;-88
2022/04/04 01:12:11;;;;;;;;;;;7.30;78.70;;;;;;5075427;28;19909;-88
2022/04/04 01:14:41;;;;;;;;;;;7.30;78.50;;;;;;5085673;28;19919;-88
2022/04/04 01:17:07;;;;;;;;;;;7.40;78.30;;;;;;5095562;28;19916;-88
2022/04/04 01:19:33;;;;;;;;;;;7.40;78.20;;;;;;5095614;28;19951;-88
2022/04/04 01:21:59;;;;;;;;;;;7.40;78.10;;;;;;5095803;28;20377;-88
2022/04/04 01:24:25;;;;;;;;;;;7.40;77.90;;;;;;5095762;28;19908;-88
2022/04/04 01:26:51;;;;;;;;;;;7.50;77.80;;;;;;5095445;28;19908;-88
2022/04/04 01:29:17;;;;;;;;;;;7.50;77.80;;;;;;5094078;28;20335;-88
2022/04/04 01:31:43;;;;;;;;;;;7.50;77.60;;;;;;5079388;28;19991;-88
2022/04/04 01:34:08;;;;;;;;;;;7.60;77.30;;;;;;5075034;28;20050;-88
2022/04/04 01:36:34;;;;;;;;;;;7.60;76.80;;;;;;5074760;28;19960;-88
2022/04/04 01:39:00;;;;;;;;;;;7.60;77.00;;;;;;5074980;28;20378;-88
2022/04/04 01:41:26;;;;;;;;;;;7.50;77.30;;;;;;5074953;28;19908;-88
2022/04/04 01:43:52;;;;;;;;;;;7.40;77.60;;;;;;5074939;28;19923;-88
2022/04/04 01:46:23;;;;;;;;;;;7.40;78.00;;;;;;5075047;28;19916;-89
2022/04/04 01:48:50;;;;;;;;;;;7.30;78.20;;;;;;5074750;28;19908;-89
2022/04/04 01:51:15;;;;;;;;;;;7.40;78.20;;;;;;5076503;28;19909;-88
2022/04/04 01:53:41;;;;;;;;;;;7.40;78.00;;;;;;5094864;28;19915;-88
2022/04/04 01:56:07;;;;;;;;;;;7.50;77.60;;;;;;5094763;28;19978;-88
2022/04/04 01:58:32;;;;;;;;;;;7.60;77.30;;;;;;5094270;28;20006;-88
2022/04/04 02:01:01;;;;;;;;;;;7.60;77.10;;;;;;5094338;28;19952;-88
2022/04/04 02:03:26;;;;;;;;;;;7.70;76.90;;;;;;5094661;28;19915;-88
2022/04/04 02:05:52;;;;;;;;;;;7.70;76.70;;;;;;5094947;28;19924;-89
2022/04/04 02:08:18;;;;;;;;;;;7.80;76.10;;;;;;5092605;28;20324;-88
2022/04/04 02:10:44;;;;;;;;;;;7.70;76.10;;;;;;5094510;28;19908;-89
2022/04/04 02:13:10;;;;;;;;;;;7.70;76.40;;;;;;5094554;28;19953;-88
2022/04/04 02:15:35;;;;;;;;;;;7.80;76.20;;;;;;5094387;28;19912;-87
2022/04/04 02:18:01;;;;;;;;;;;7.70;76.10;;;;;;5094445;28;19919;-88
2022/04/04 02:20:26;;;;;;;;;;;7.60;76.20;;;;;;5094420;28;19959;-88
2022/04/04 02:22:52;;;;;;;;;;;7.50;76.60;;;;;;5094278;28;19951;-88
2022/04/04 02:25:18;;;;;;;;;;;7.50;77.20;;;;;;5094270;28;20006;-88
2022/04/04 02:27:43;;;;;;;;;;;7.30;77.50;;;;;;5094570;28;20049;-88
2022/04/04 02:30:10;;;;;;;;;;;7.30;77.80;;;;;;5077314;28;20484;-88
2022/04/04 02:32:36;;;;;;;;;;;7.30;77.30;;;;;;5073839;28;19908;-88
2022/04/04 02:35:02;;;;;;;;;;;7.40;76.90;;;;;;5073719;28;20346;-88
2022/04/04 02:37:28;;;;;;;;;;;7.40;76.30;;;;;;5073829;28;19917;-88
2022/04/04 02:39:54;;;;;;;;;;;7.50;76.10;;;;;;5073788;28;19908;-88
2022/04/04 02:42:19;;;;;;;;;;;7.50;76.90;;;;;;5073708;28;19915;-88
2022/04/04 02:44:45;;;;;;;;;;;7.50;78.20;;;;;;5073677;28;19915;-88
2022/04/04 02:47:10;;;;;;;;;;;7.40;78.60;;;;;;5073574;28;20003;-88
2022/04/04 02:49:36;;;;;;;;;;;7.40;78.50;;;;;;5073543;28;19908;-88
2022/04/04 02:52:02;;;;;;;;;;;7.40;78.50;;;;;;5077326;28;19961;-88
2022/04/04 02:54:27;;;;;;;;;;;7.40;78.20;;;;;;5093717;28;19916;-88
2022/04/04 02:56:53;;;;;;;;;;;7.40;77.90;;;;;;5093661;28;20281;-88
2022/04/04 02:59:18;;;;;;;;;;;7.20;78.40;;;;;;5093696;28;20392;-88
2022/04/04 03:01:50;;;;;;;;;;;7.00;78.90;;;;;;5093665;28;20362;-88
2022/04/04 03:04:16;;;;;;;;;;;6.90;79.60;;;;;;5093638;28;20391;-88
2022/04/04 03:06:41;;;;;;;;;;;6.90;80.20;;;;;;5093561;28;19908;-88
2022/04/04 03:09:07;;;;;;;;;;;6.80;80.60;;;;;;5081722;28;19950;-88
2022/04/04 03:11:32;;;;;;;;;;;6.80;80.70;;;;;;5072977;28;20045;-88
2022/04/04 03:13:58;;;;;;;;;;;6.90;80.90;;;;;;5072825;28;19916;-88
2022/04/04 03:16:23;;;;;;;;;;;6.90;81.00;;;;;;5073187;28;19912;-88
2022/04/04 03:18:49;;;;;;;;;;;6.90;81.20;;;;;;5073152;28;19923;-88
2022/04/04 03:21:15;;;;;;;;;;;6.90;81.30;;;;;;5073122;28;19908;-88
2022/04/04 03:23:40;;;;;;;;;;;7.00;80.70;;;;;;5073393;28;19908;-88
2022/04/04 03:26:06;;;;;;;;;;;7.00;81.00;;;;;;5073124;28;20389;-89
2022/04/04 03:28:32;;;;;;;;;;;7.00;81.50;;;;;;5073108;28;19915;-88
2022/04/04 03:30:58;;;;;;;;;;;6.90;81.90;;;;;;5072950;28;19952;-88
2022/04/04 03:33:23;;;;;;;;;;;7.00;81.00;;;;;;5090802;28;19915;-88
2022/04/04 03:35:49;;;;;;;;;;;6.90;80.80;;;;;;5093002;28;19986;-88
2022/04/04 03:38:15;;;;;;;;;;;6.70;81.10;;;;;;5093186;28;19909;-88
2022/04/04 03:40:42;;;;;;;;;;;6.60;80.30;;;;;;5093119;28;19943;-88
2022/04/04 03:43:08;;;;;;;;;;;6.50;80.50;;;;;;5093149;28;19927;-88
2022/04/04 03:45:33;;;;;;;;;;;6.60;80.70;;;;;;5093470;28;19908;-88
2022/04/04 03:47:59;;;;;;;;;;;6.60;80.60;;;;;;5093108;28;20373;-88
2022/04/04 03:50:25;;;;;;;;;;;6.70;80.00;;;;;;5093074;28;19999;-89
2022/04/04 03:52:55;;;;;;;;;;;6.70;79.60;;;;;;5093042;28;19915;-88
2022/04/04 03:55:32;;;;;;;;;;;6.80;79.30;;;;;;5092986;28;20366;-88
2022/04/04 03:57:58;;;;;;;;;;;6.90;78.80;;;;;;5080660;28;19939;-88
2022/04/04 04:00:24;;;;;;;;;;;6.90;78.30;;;;;;5073098;28;20362;-89
2022/04/04 04:02:50;;;;;;;;;;;7.00;77.90;;;;;;5072754;28;19908;-88
2022/04/04 04:05:15;;;;;;;;;;;7.10;77.50;;;;;;5072944;28;20335;-88
2022/04/04 04:07:41;;;;;;;;;;;7.20;77.30;;;;;;5071589;28;20321;-88
2022/04/04 04:10:07;;;;;;;;;;;7.30;76.90;;;;;;5072719;28;19915;-88
2022/04/04 04:12:32;;;;;;;;;;;7.10;77.50;;;;;;5072699;28;20325;-87
2022/04/04 04:14:58;;;;;;;;;;;6.90;78.00;;;;;;5072678;28;20417;-88
2022/04/04 04:17:24;;;;;;;;;;;6.80;78.50;;;;;;5072571;28;19913;-88
2022/04/04 04:22:34;;;;;;;;;;;6.60;79.50;;;;;;5073933;28;19931;-88
2022/04/04 04:25:00;;;;;;;;;;;6.50;79.70;;;;;;5086139;28;20370;-88
2022/04/04 04:27:26;;;;;;;;;;;6.40;80.20;;;;;;5096581;28;19908;-88
2022/04/04 04:29:52;;;;;;;;;;;6.40;80.30;;;;;;5096539;28;19957;-88
2022/04/04 04:32:17;;;;;;;;;;;6.60;79.70;;;;;;5096324;28;19994;-88
2022/04/04 04:34:48;;;;;;;;;;;6.70;78.50;;;;;;5095191;28;19908;-88
2022/04/04 04:37:18;;;;;;;;;;;6.60;78.80;;;;;;5096129;28;19924;-88
2022/04/04 04:39:43;;;;;;;;;;;6.40;79.30;;;;;;5096362;28;19908;-88
2022/04/04 04:42:09;;;;;;;;;;;6.40;80.10;;;;;;5096256;28;19915;-88
2022/04/04 04:44:34;;;;;;;;;;;6.20;81.10;;;;;;5096253;28;20374;-87
2022/04/04 04:47:00;;;;;;;;;;;6.20;81.50;;;;;;5096244;28;20356;-87
2022/04/04 04:49:26;;;;;;;;;;;6.10;82.00;;;;;;5096223;28;19916;-87
2022/04/04 04:51:55;;;;;;;;;;;6.10;82.00;;;;;;5093720;28;19957;-88
2022/04/04 04:54:20;;;;;;;;;;;6.20;81.20;;;;;;5097063;28;19912;-88
2022/04/04 04:56:46;;;;;;;;;;;6.30;80.30;;;;;;5116642;28;19912;-88
2022/04/04 04:59:13;;;;;;;;;;;6.40;79.30;;;;;;5116605;28;20002;-88
2022/04/04 05:01:38;;;;;;;;;;;6.50;78.70;;;;;;5107310;28;20158;-89
2022/04/04 05:04:04;;;;;;;;;;;6.60;78.40;;;;;;5095972;28;20418;-87
2022/04/04 05:06:30;;;;;;;;;;;6.70;78.00;;;;;;5098712;28;19919;-88
2022/04/04 05:08:58;;;;;;;;;;;6.80;77.70;;;;;;5095719;28;19908;-88
2022/04/04 05:11:23;;;;;;;;;;;6.90;77.50;;;;;;5096020;28;19939;-88
2022/04/04 05:13:49;;;;;;;;;;;6.80;77.30;;;;;;5099356;28;19959;-88
2022/04/04 05:16:14;;;;;;;;;;;6.70;77.80;;;;;;5096089;28;20449;-88
2022/04/04 05:18:42;;;;;;;;;;;6.50;78.20;;;;;;5079867;28;20008;-88
2022/04/04 05:21:09;;;;;;;;;;;6.40;79.10;;;;;;5093225;28;19927;-88
2022/04/04 05:23:35;;;;;;;;;;;6.30;79.60;;;;;;5091872;28;20366;-87
2022/04/04 05:26:01;;;;;;;;;;;6.20;80.00;;;;;;5087720;28;20316;-88
2022/04/04 05:28:26;;;;;;;;;;;6.00;80.10;;;;;;5089994;28;20051;-88
2022/04/04 05:30:52;;;;;;;;;;;6.00;80.50;;;;;;5088569;28;19916;-88
2022/04/04 05:33:17;;;;;;;;;;;6.10;81.00;;;;;;5085560;28;19916;-88
2022/04/04 05:35:43;;;;;;;;;;;6.30;81.20;;;;;;5090692;28;20010;-88
2022/04/04 05:38:09;;;;;;;;;;;6.40;81.00;;;;;;5089086;28;19920;-88
2022/04/04 05:40:35;;;;;;;;;;;6.50;80.60;;;;;;5086386;28;19912;-88
2022/04/04 05:43:01;;;;;;;;;;;6.70;79.80;;;;;;5081017;28;20323;-88
2022/04/04 05:45:26;;;;;;;;;;;6.90;78.90;;;;;;5083331;28;19913;-88
2022/04/04 05:47:52;;;;;;;;;;;7.00;77.70;;;;;;5086000;28;19920;-88
2022/04/04 05:50:18;;;;;;;;;;;6.90;77.70;;;;;;5086169;28;19916;-87
2022/04/04 05:52:45;;;;;;;;;;;6.80;78.00;;;;;;5080660;28;19912;-87
2022/04/04 05:55:10;;;;;;;;;;;6.80;78.10;;;;;;5089783;28;19912;-88
2022/04/04 05:57:38;;;;;;;;;;;6.90;78.00;;;;;;5089599;28;20277;-88
2022/04/04 06:00:08;;;;;;;;;;;7.00;77.70;;;;;;5088720;28;19942;-87
2022/04/04 06:02:35;;;;;;;;;;;7.00;77.80;;;;;;5078755;28;19919;-87
2022/04/04 06:05:01;;;;;;;;;;;7.10;78.20;;;;;;5089688;28;19920;-88
2022/04/04 06:07:26;;;;;;;;;;;7.40;78.00;;;;;;5089597;28;19920;-88
2022/04/04 06:09:52;;;;;;;;;;;7.50;77.50;;;;;;5089377;28;19927;-88
2022/04/04 06:12:17;;;;;;;;;;;7.80;77.10;;;;;;5090605;28;20392;-88
2022/04/04 06:14:43;;;;;;;;;;;8.10;76.00;;;;;;5083117;28;19912;-88
2022/04/04 06:17:08;;;;;;;;;;;8.10;75.20;;;;;;5082493;28;19916;-88
2022/04/04 06:19:35;;;;;;;;;;;8.20;75.20;;;;;;5077498;28;19912;-88
2022/04/04 06:22:01;;;;;;;;;;;8.30;75.30;;;;;;5093346;28;19912;-88
2022/04/04 06:24:26;;;;;;;;;;;8.40;74.80;;;;;;5091177;28;19912;-88
2022/04/04 06:26:52;;;;;;;;;;;8.50;73.50;;;;;;5087004;28;20263;-88
2022/04/04 06:29:17;;;;;;;;;;;8.60;73.00;;;;;;5085656;28;19920;-88
2022/04/04 06:31:44;;;;;;;;;;;8.60;72.40;;;;;;5081285;28;19912;-88
2022/04/04 06:34:10;;;;;;;;;;;8.50;72.70;;;;;;5082049;28;19966;-88
2022/04/04 06:36:37;;;;;;;;;;;8.60;72.80;;;;;;5081448;28;19920;-88
2022/04/04 06:39:03;;;;;;;;;;;8.60;74.90;;;;;;5088249;28;20370;-87
2022/04/04 06:41:30;;;;;;;;;;;8.60;74.90;;;;;;5081095;28;19912;-88
2022/04/04 06:43:56;;;;;;;;;;;8.40;73.20;;;;;;5089691;28;19916;-88
2022/04/04 06:46:22;;;;;;;;;;;8.20;74.50;;;;;;5090847;28;19961;-88
2022/04/04 06:48:50;;;;;;;;;;;8.10;75.40;;;;;;5096557;28;19915;-88
2022/04/04 06:51:16;;;;;;;;;;;8.30;75.40;;;;;;5092721;28;19912;-88
2022/04/04 06:53:42;;;;;;;;;;;8.50;74.20;;;;;;5097399;28;20381;-87
2022/04/04 06:56:08;;;;;;;;;;;8.80;73.70;;;;;;5081907;28;20007;-88
2022/04/04 06:58:33;;;;;;;;;;;8.80;75.60;;;;;;5089659;28;20499;-88
2022/04/04 07:00:59;;;;;;;;;;;8.40;75.30;;;;;;5085261;28;19919;-88
2022/04/04 07:03:25;;;;;;;;;;;8.20;74.00;;;;;;5083096;28;19919;-88
2022/04/04 07:05:50;;;;;;;;;;;8.20;76.60;;;;;;5094822;28;19916;-88
2022/04/04 07:08:16;;;;;;;;;;;8.20;75.20;;;;;;5094342;28;19912;-88
2022/04/04 07:10:42;;;;;;;;;;;8.50;73.90;;;;;;5093160;28;19912;-88
2022/04/04 07:13:08;;;;;;;;;;;8.80;74.70;;;;;;5081444;28;19924;-88
2022/04/04 07:15:34;;;;;;;;;;;8.90;73.90;;;;;;5078254;28;19920;-87
2022/04/04 07:17:59;;;;;;;;;;;8.90;74.10;;;;;;5076973;28;20021;-88
2022/04/04 07:20:25;;;;;;;;;;;8.90;73.10;;;;;;5078463;28;19913;-88
2022/04/04 07:22:51;;;;;;;;;;;9.10;73.30;;;;;;5073662;28;19911;-88
2022/04/04 07:25:16;;;;;;;;;;;9.10;72.40;;;;;;5075765;28;19939;-88
2022/04/04 07:27:43;;;;;;;;;;;9.30;72.20;;;;;;5077571;28;19916;-88
2022/04/04 07:30:09;;;;;;;;;;;9.20;70.00;;;;;;5103328;28;19964;-89
2022/04/04 07:32:38;;;;;;;;;;;9.40;71.30;;;;;;5088464;28;19922;-88
2022/04/04 07:35:05;;;;;;;;;;;9.40;70.90;;;;;;5106333;22;20377;-88
2022/04/04 07:37:30;;;;;;;;;;;9.40;71.20;;;;;;5107967;28;19920;-88
2022/04/04 07:39:56;;;;;;;;;;;9.30;70.70;;;;;;5104281;28;19912;-88
2022/04/04 07:42:21;;;;;;;;;;;9.50;70.00;;;;;;5103487;28;19912;-88
2022/04/04 07:44:47;;;;;;;;;;;9.50;72.00;;;;;;5099854;28;20384;-88
2022/04/04 07:47:13;;;;;;;;;;;9.70;71.60;;;;;;5101883;28;20399;-88
2022/04/04 07:49:38;;;;;;;;;;;9.80;71.60;;;;;;5100473;28;19912;-88
2022/04/04 07:52:04;;;;;;;;;;;10.00;69.10;;;;;;5100181;28;19912;-89
2022/04/04 07:54:29;;;;;;;;;;;10.30;68.50;;;;;;5100141;28;20381;-88
2022/04/04 07:56:56;;;;;;;;;;;10.40;66.90;;;;;;5103575;28;19958;-88
2022/04/04 07:59:24;;;;;;;;;;;10.50;67.40;;;;;;5102052;28;20251;-89
2022/04/04 08:01:50;;;;;;;;;;;10.50;66.90;;;;;;5104346;27;19919;-88
2022/04/04 08:04:17;;;;;;;;;;;10.60;67.40;;;;;;5120603;27;19908;-88
2022/04/04 08:06:43;;;;;;;;;;;10.40;68.10;;;;;;5106929;28;19920;-88
2022/04/04 08:09:08;;;;;;;;;;;10.40;68.10;;;;;;5096927;28;20393;-88
2022/04/04 08:11:34;;;;;;;;;;;10.30;69.60;;;;;;5091583;28;19918;-88
2022/04/04 08:14:00;;;;;;;;;;;10.10;69.40;;;;;;5091332;28;19934;-88
2022/04/04 08:16:26;;;;;;;;;;;10.10;69.40;;;;;;5088509;28;20362;-88
2022/04/04 08:18:54;;;;;;;;;;;10.10;69.60;;;;;;5088795;28;19935;-88
2022/04/04 08:21:20;;;;;;;;;;;10.20;70.00;;;;;;5086402;28;19947;-89
2022/04/04 08:23:46;;;;;;;;;;;10.30;70.40;;;;;;5093662;28;20378;-89
2022/04/04 08:26:12;;;;;;;;;;;10.30;70.60;;;;;;5091221;28;20289;-89
2022/04/04 08:28:37;;;;;;;;;;;10.30;69.90;;;;;;5093481;28;19923;-88
2022/04/04 08:31:03;;;;;;;;;;;10.40;70.20;;;;;;5086837;28;19919;-88
2022/04/04 08:33:29;;;;;;;;;;;10.60;69.60;;;;;;5090796;28;20434;-89
2022/04/04 08:35:56;;;;;;;;;;;10.80;68.10;;;;;;5110960;28;20006;-88
2022/04/04 08:38:21;;;;;;;;;;;11.10;66.30;;;;;;5090679;28;20380;-88
2022/04/04 08:40:48;;;;;;;;;;;11.10;66.70;;;;;;5094164;28;19915;-88
2022/04/04 08:43:15;;;;;;;;;;;11.10;66.20;;;;;;5089227;28;19968;-88
2022/04/04 08:45:44;;;;;;;;;;;11.10;66.60;;;;;;5088953;28;19915;-88
2022/04/04 08:48:10;;;;;;;;;;;11.10;67.10;;;;;;5088375;28;20448;-89
2022/04/04 08:50:37;;;;;;;;;;;11.10;65.60;;;;;;5092189;28;20257;-88
2022/04/04 08:53:04;;;;;;;;;;;11.00;65.70;;;;;;5083875;28;19977;-88
2022/04/04 08:55:30;;;;;;;;;;;11.20;66.20;;;;;;5096098;28;20285;-89
2022/04/04 08:57:56;;;;;;;;;;;11.30;66.00;;;;;;5104012;28;20007;-88
2022/04/04 09:00:22;;;;;;;;;;;11.30;65.70;;;;;;5084030;28;19957;-89
2022/04/04 09:02:57;;;;;;;;;;;11.40;66.20;;;;;;5095349;28;19920;-89
2022/04/04 09:05:22;;;;;;;;;;;11.40;65.70;;;;;;5088804;28;19956;-89
2022/04/04 09:07:58;;;;;;;;;;;11.60;62.20;;;;;;5091864;28;19955;-88
2022/04/04 09:10:30;;;;;;;;;;;11.80;61.80;;;;;;5088041;28;19920;-88
2022/04/04 09:13:03;;;;;;;;;;;11.80;61.80;;;;;;5087542;28;19912;-88
2022/04/04 09:15:48;;;;;;;;;;;11.70;63.00;;;;;;5088409;28;20003;-88
2022/04/04 09:18:13;;;;;;;;;;;11.60;63.80;;;;;;5083655;28;19919;-87
2022/04/04 09:20:46;;;;;;;;;;;11.60;63.40;;;;;;5087006;28;19912;-88
2022/04/04 09:23:12;;;;;;;;;;;11.60;62.50;;;;;;5090379;28;19955;-88
2022/04/04 09:25:37;;;;;;;;;;;11.70;62.40;;;;;;5081878;28;20421;-88
2022/04/04 09:28:19;;;;;;;;;;;12.00;64.80;;;;;;5083980;28;19999;-88
2022/04/04 09:31:03;;;;;;;;;;;12.30;63.20;;;;;;5085229;28;20283;-88
2022/04/04 09:33:39;;;;;;;;;;;12.50;63.70;;;;;;5084699;28;19913;-88
2022/04/04 09:36:04;;;;;;;;;;;12.80;60.80;;;;;;5089372;28;19953;-88
2022/04/04 09:38:33;;;;;;;;;;;13.10;58.90;;;;;;5085682;28;20401;-88
2022/04/04 09:41:14;;;;;;;;;;;13.10;59.50;;;;;;5089222;28;19912;-88
2022/04/04 09:43:53;;;;;;;;;;;13.20;57.90;;;;;;5090028;28;20314;-88
2022/04/04 09:46:19;;;;;;;;;;;13.10;58.00;;;;;;5092584;28;20437;-88
2022/04/04 09:49:03;;;;;;;;;;;12.70;57.70;;;;;;5081437;28;19963;-87
2022/04/04 09:51:44;;;;;;;;;;;12.30;60.20;;;;;;5086086;28;19916;-88
2022/04/04 09:54:15;;;;;;;;;;;12.00;59.00;;;;;;5081405;28;20041;-88
2022/04/04 09:56:41;;;;;;;;;;;12.20;61.80;;;;;;5089672;28;19916;-88
2022/04/04 09:59:10;;;;;;;;;;;12.40;59.90;;;;;;5081490;28;19912;-88
2022/04/04 10:01:36;;;;;;;;;;;12.60;56.50;;;;;;5081751;28;21059;-88
2022/04/04 10:04:02;;;;;;;;;;;12.70;57.40;;;;;;5086752;28;20355;-88
2022/04/04 10:06:28;;;;;;;;;;;12.70;56.50;;;;;;5078105;28;19912;-88
2022/04/04 10:08:58;;;;;;;;;;;12.90;57.50;;;;;;5083334;28;20358;-88
2022/04/04 10:11:24;;;;;;;;;;;13.00;55.50;;;;;;5092239;28;19912;-88
2022/04/04 10:13:52;;;;;;;;;;;13.30;57.50;;;;;;5094466;28;19908;-88
2022/04/04 10:16:18;;;;;;;;;;;13.60;56.50;;;;;;5094380;28;19912;-88
2022/04/04 10:18:44;;;;;;;;;;;13.90;53.90;;;;;;5094465;28;19914;-88
2022/04/04 10:21:11;;;;;;;;;;;13.80;53.00;;;;;;5093368;28;19967;-88
2022/04/04 10:23:37;;;;;;;;;;;13.40;55.90;;;;;;5094334;28;19954;-88
2022/04/04 10:26:03;;;;;;;;;;;13.10;57.30;;;;;;5090451;28;20015;-88
2022/04/04 10:28:30;;;;;;;;;;;13.10;58.10;;;;;;5073938;28;19940;-88
2022/04/04 10:31:15;;;;;;;;;;;12.90;59.60;;;;;;5087447;28;19915;-88
2022/04/04 10:33:42;;;;;;;;;;;13.10;57.50;;;;;;5094195;28;19908;-88
2022/04/04 10:36:10;;;;;;;;;;;13.00;61.60;;;;;;5093823;28;19933;-88
2022/04/04 10:38:45;;;;;;;;;;;13.00;58.10;;;;;;5093792;28;20002;-88
2022/04/04 10:41:13;;;;;;;;;;;12.90;57.60;;;;;;5094083;28;19915;-88
2022/04/04 10:43:39;;;;;;;;;;;12.80;57.70;;;;;;5094031;28;19912;-88
2022/04/04 10:46:11;;;;;;;;;;;12.70;58.30;;;;;;5094027;28;19908;-88
2022/04/04 10:48:41;;;;;;;;;;;12.50;58.20;;;;;;5094217;28;19916;-88
2022/04/04 10:51:17;;;;;;;;;;;12.50;57.40;;;;;;5093927;28;20007;-88
2022/04/04 10:53:43;;;;;;;;;;;12.40;57.00;;;;;;5093855;28;19953;-88
2022/04/04 10:56:10;;;;;;;;;;;12.40;57.50;;;;;;5083276;28;19936;-88
2022/04/04 10:58:35;;;;;;;;;;;12.50;58.40;;;;;;5073553;28;19916;-88
2022/04/04 11:01:07;;;;;;;;;;;12.60;58.60;;;;;;5073403;28;19908;-88
2022/04/04 11:03:39;;;;;;;;;;;12.40;59.70;;;;;;5073679;28;19908;-88
2022/04/04 11:09:00;;;;;;;;;;;12.30;58.90;;;;;;5073571;28;19951;-89
2022/04/04 11:11:44;;;;;;;;;;;12.10;58.90;;;;;;5072116;28;19908;-88
2022/04/04 11:14:11;;;;;;;;;;;12.10;60.10;;;;;;5073314;28;19954;-88
2022/04/04 11:16:55;;;;;;;;;;;12.10;60.20;;;;;;5073470;28;19934;-88
2022/04/04 11:19:21;;;;;;;;;;;12.20;58.80;;;;;;5073059;28;19909;-88
2022/04/04 11:21:48;;;;;;;;;;;12.20;59.20;;;;;;5073203;28;20007;-88
2022/04/04 11:24:15;;;;;;;;;;;12.10;58.80;;;;;;5073221;28;19916;-88
2022/04/04 11:26:41;;;;;;;;;;;12.00;57.90;;;;;;5082187;28;20010;-88
2022/04/04 11:29:09;;;;;;;;;;;12.00;58.50;;;;;;5074564;28;20024;-88
2022/04/04 11:31:45;;;;;;;;;;;12.00;58.40;;;;;;5083418;28;19935;-88
2022/04/04 11:34:12;;;;;;;;;;;11.90;57.20;;;;;;5081323;28;20395;-88
2022/04/04 11:36:39;;;;;;;;;;;11.90;57.30;;;;;;5081067;28;19979;-88
2022/04/04 11:39:08;;;;;;;;;;;11.80;57.20;;;;;;5087276;28;19973;-88
2022/04/04 11:41:39;;;;;;;;;;;11.80;58.10;;;;;;5093415;28;19908;-88
2022/04/04 11:44:05;;;;;;;;;;;11.80;58.80;;;;;;5076428;28;19959;-88
2022/04/04 11:46:31;;;;;;;;;;;11.90;57.40;;;;;;5091124;28;19937;-88
2022/04/04 11:48:59;;;;;;;;;;;11.90;58.80;;;;;;5093723;28;19912;-88
2022/04/04 11:51:25;;;;;;;;;;;12.00;59.50;;;;;;5087937;28;19923;-88
2022/04/04 11:54:00;;;;;;;;;;;12.30;60.20;;;;;;5080053;28;19912;-88
2022/04/04 11:56:26;;;;;;;;;;;12.40;57.90;;;;;;5086670;28;19923;-88
2022/04/04 11:58:54;;;;;;;;;;;12.40;55.60;;;;;;5082643;28;19912;-88
2022/04/04 12:01:19;;;;;;;;;;;12.50;58.70;;;;;;5083493;28;19978;-88
2022/04/04 12:03:49;;;;;;;;;;;12.70;57.90;;;;;;5090209;28;20369;-88
2022/04/04 12:06:15;;;;;;;;;;;12.50;57.40;;;;;;5088366;28;19916;-88
2022/04/04 12:08:44;;;;;;;;;;;12.50;56.60;;;;;;5081651;28;20003;-88
2022/04/04 12:11:10;;;;;;;;;;;12.50;56.70;;;;;;5081506;28;20373;-88
2022/04/04 12:13:47;;;;;;;;;;;12.50;55.20;;;;;;5078691;28;19912;-88
2022/04/04 12:16:12;;;;;;;;;;;12.40;55.10;;;;;;5085525;28;19930;-88
2022/04/04 12:18:42;;;;;;;;;;;12.60;56.00;;;;;;5086398;28;19916;-88
2022/04/04 12:21:08;;;;;;;;;;;12.70;56.10;;;;;;5084195;28;19916;-88
2022/04/04 12:26:23;;;;;;;;;;;13.00;56.70;;;;;;5083217;28;20331;-88
2022/04/04 12:28:48;;;;;;;;;;;13.10;56.10;;;;;;5080543;28;19923;-88
2022/04/04 12:31:18;;;;;;;;;;;13.20;55.20;;;;;;5082609;28;19999;-88
2022/04/04 12:33:45;;;;;;;;;;;13.60;53.80;;;;;;5089665;28;19919;-88
2022/04/04 12:36:12;;;;;;;;;;;13.80;52.50;;;;;;5084266;28;19920;-89
2022/04/04 12:38:39;;;;;;;;;;;14.10;51.50;;;;;;5086071;28;19919;-88
2022/04/04 12:41:15;;;;;;;;;;;13.90;51.10;;;;;;5088559;28;19958;-88
2022/04/04 12:43:42;;;;;;;;;;;13.90;52.60;;;;;;5082071;28;19947;-88
2022/04/04 12:46:21;;;;;;;;;;;13.80;52.60;;;;;;5086070;28;19955;-88
2022/04/04 12:48:46;;;;;;;;;;;13.80;51.70;;;;;;5088798;28;19912;-88
2022/04/04 12:51:24;;;;;;;;;;;13.60;52.90;;;;;;5093202;28;19912;-88
2022/04/04 12:53:50;;;;;;;;;;;13.40;54.40;;;;;;5091196;28;19912;-88
2022/04/04 12:56:16;;;;;;;;;;;13.40;54.60;;;;;;5088184;28;19916;-88
2022/04/04 12:58:41;;;;;;;;;;;13.30;52.70;;;;;;5099080;28;20016;-87
2022/04/04 13:01:10;;;;;;;;;;;13.30;52.70;;;;;;5092440;28;20315;-88
2022/04/04 13:03:45;;;;;;;;;;;13.30;52.70;;;;;;5094534;28;19951;-88
2022/04/04 13:06:11;;;;;;;;;;;13.40;53.30;;;;;;5084122;28;19955;-88
2022/04/04 13:08:36;;;;;;;;;;;13.30;51.70;;;;;;5085652;28;19948;-88
2022/04/04 13:11:10;;;;;;;;;;;13.40;52.50;;;;;;5085954;28;20375;-88
2022/04/04 13:13:36;;;;;;;;;;;13.20;52.50;;;;;;5088745;28;19912;-88
2022/04/04 13:16:02;;;;;;;;;;;13.10;52.80;;;;;;5086460;28;19916;-88
2022/04/04 13:18:28;;;;;;;;;;;12.90;53.30;;;;;;5084417;28;19995;-87
2022/04/04 13:20:54;;;;;;;;;;;12.70;53.00;;;;;;5085780;28;20011;-87
2022/04/04 13:23:21;;;;;;;;;;;12.50;53.00;;;;;;5088302;28;19920;-88
2022/04/04 13:25:50;;;;;;;;;;;12.50;55.20;;;;;;5094068;28;19974;-87
2022/04/04 13:28:16;;;;;;;;;;;12.40;53.80;;;;;;5096609;28;19916;-87
2022/04/04 13:30:42;;;;;;;;;;;12.40;52.80;;;;;;5089735;28;19916;-88
2022/04/04 13:33:08;;;;;;;;;;;12.40;54.10;;;;;;5091197;28;19965;-88
2022/04/04 13:35:34;;;;;;;;;;;12.60;54.80;;;;;;5090219;28;19978;-88
2022/04/04 13:37:59;;;;;;;;;;;12.70;53.40;;;;;;5098179;28;19927;-88
2022/04/04 13:40:25;;;;;;;;;;;12.90;53.90;;;;;;5100034;28;19912;-88
2022/04/04 13:42:50;;;;;;;;;;;13.10;52.90;;;;;;5091724;28;19919;-88
2022/04/04 13:45:16;;;;;;;;;;;13.00;51.10;;;;;;5090069;28;19919;-87
2022/04/04 13:47:42;;;;;;;;;;;13.10;51.40;;;;;;5093105;28;19953;-88
2022/04/04 13:50:08;;;;;;;;;;;13.40;50.40;;;;;;5096832;28;19919;-88
2022/04/04 13:52:34;;;;;;;;;;;13.60;50.50;;;;;;5091197;28;19916;-88
2022/04/04 13:55:00;;;;;;;;;;;14.00;49.30;;;;;;5095759;28;19920;-88
2022/04/04 13:57:26;;;;;;;;;;;14.30;48.70;;;;;;5097320;28;19928;-88
2022/04/04 13:59:51;;;;;;;;;;;14.60;48.10;;;;;;5090196;28;19943;-88
2022/04/04 14:02:17;;;;;;;;;;;14.50;47.00;;;;;;5082755;28;19913;-88
2022/04/04 14:04:43;;;;;;;;;;;14.40;47.60;;;;;;5084416;28;20517;-87
2022/04/04 14:07:10;;;;;;;;;;;14.40;46.90;;;;;;5096729;28;19923;-88
2022/04/04 14:09:36;;;;;;;;;;;14.40;47.30;;;;;;5097065;28;20003;-88
2022/04/04 14:12:03;;;;;;;;;;;14.50;47.40;;;;;;5088792;28;19964;-88
2022/04/04 14:14:30;;;;;;;;;;;14.80;46.90;;;;;;5091171;28;19991;-88
2022/04/04 14:16:57;;;;;;;;;;;15.30;46.90;;;;;;5084932;28;19916;-89
2022/04/04 14:19:22;;;;;;;;;;;16.30;46.30;;;;;;5112901;28;20361;-88
2022/04/04 14:21:48;;;;;;;;;;;16.30;43.60;;;;;;5096612;28;19970;-88
2022/04/04 14:24:13;;;;;;;;;;;16.10;43.70;;;;;;5091910;28;20428;-89
2022/04/04 14:26:39;;;;;;;;;;;16.60;43.10;;;;;;5102366;28;20365;-89
2022/04/04 14:29:04;;;;;;;;;;;17.60;41.80;;;;;;5080287;28;20059;-89
2022/04/04 14:31:31;;;;;;;;;;;18.80;40.00;;;;;;5098391;28;19915;-89